createdAt,value
2019-03-25T00:00:33.397Z,91.00
2019-03-25T00:05:38.263Z,91.20
2019-03-25T00:10:43.141Z,91.50
2019-03-25T00:15:48.411Z,91.60
2019-03-25T00:20:53.361Z,91.60
2019-03-25T00:25:58.175Z,91.70
2019-03-25T00:31:02.991Z,91.70
2019-03-25T00:36:07.833Z,92.10
2019-03-25T00:41:12.700Z,92.10
2019-03-25T00:46:17.544Z,92.00
2019-03-25T00:51:22.411Z,92.40
2019-03-25T00:56:27.287Z,92.20
2019-03-25T01:01:32.467Z,92.50
2019-03-25T01:06:37.328Z,92.70
2019-03-25T01:11:49.051Z,92.20
2019-03-25T01:16:48.656Z,92.00
2019-03-25T01:21:53.892Z,92.70
2019-03-25T01:26:58.687Z,92.80
2019-03-25T01:32:03.654Z,93.10
2019-03-25T01:37:08.440Z,92.90
2019-03-25T01:42:13.309Z,93.10
2019-03-25T01:47:18.112Z,93.30
2019-03-25T01:52:22.955Z,93.50
2019-03-25T01:57:27.794Z,93.00
2019-03-25T02:02:32.518Z,93.00
2019-03-25T02:07:37.460Z,93.30
2019-03-25T02:12:42.621Z,93.70
2019-03-25T02:17:47.676Z,93.20
2019-03-25T02:22:53.100Z,93.30
2019-03-25T02:27:58.400Z,92.90
2019-03-25T02:33:03.629Z,93.30
2019-03-25T02:38:08.782Z,93.10
2019-03-25T02:43:14.130Z,92.90
2019-03-25T02:48:19.704Z,93.20
2019-03-25T02:53:24.662Z,93.10
2019-03-25T02:58:29.733Z,93.60
2019-03-25T03:03:34.609Z,93.70
2019-03-25T03:08:39.396Z,93.90
2019-03-25T03:13:44.188Z,94.00
2019-03-25T03:18:49.063Z,93.60
2019-03-25T03:23:54.037Z,93.70
2019-03-25T03:28:59.002Z,94.20
2019-03-25T03:34:03.854Z,93.80
2019-03-25T03:39:08.717Z,93.90
2019-03-25T03:44:13.561Z,93.70
2019-03-25T03:49:18.665Z,93.90
2019-03-25T03:54:23.935Z,93.90
2019-03-25T03:59:28.801Z,94.20
2019-03-25T04:04:33.946Z,94.30
2019-03-25T04:09:38.816Z,94.20
2019-03-25T04:14:43.683Z,94.30
2019-03-25T04:19:48.438Z,94.00
2019-03-25T04:24:53.878Z,93.80
2019-03-25T04:29:58.749Z,94.10
2019-03-25T04:35:03.904Z,93.90
2019-03-25T04:40:08.944Z,94.20
2019-03-25T04:45:14.198Z,94.20
2019-03-25T04:50:19.067Z,94.30
2019-03-25T04:55:23.892Z,94.20
2019-03-25T05:00:33.731Z,94.20
2019-03-25T05:05:38.587Z,94.50
2019-03-25T05:10:44.296Z,94.30
2019-03-25T05:15:49.198Z,94.10
2019-03-25T05:20:54.115Z,94.40
2019-03-25T05:25:59.217Z,94.20
2019-03-25T05:31:04.116Z,94.50
2019-03-25T05:36:08.876Z,94.40
2019-03-25T05:41:13.723Z,94.60
2019-03-25T05:46:18.488Z,94.60
2019-03-25T05:51:23.329Z,94.70
2019-03-25T05:56:28.157Z,94.50
2019-03-25T06:01:32.993Z,94.60
2019-03-25T06:06:38.267Z,94.70
2019-03-25T06:11:43.084Z,94.60
2019-03-25T06:16:47.927Z,94.70
2019-03-25T06:21:52.688Z,95.10
2019-03-25T06:26:57.602Z,93.90
2019-03-25T06:32:02.436Z,93.20
2019-03-25T06:37:07.280Z,93.40
2019-03-25T06:42:12.151Z,92.70
2019-03-25T06:47:16.976Z,92.60
2019-03-25T06:52:21.823Z,91.90
2019-03-25T06:57:26.648Z,91.60
2019-03-25T07:02:31.476Z,90.80
2019-03-25T07:07:36.309Z,91.00
2019-03-25T07:12:41.413Z,90.40
2019-03-25T07:17:46.271Z,90.70
2019-03-25T07:22:51.115Z,90.90
2019-03-25T07:27:56.351Z,91.00
2019-03-25T07:33:01.570Z,90.50
2019-03-25T07:38:06.516Z,90.30
2019-03-25T07:43:11.351Z,90.10
2019-03-25T07:48:16.172Z,88.20
2019-03-25T07:53:21.028Z,88.30
2019-03-25T07:58:25.887Z,87.20
2019-03-25T08:03:30.720Z,86.90
2019-03-25T08:08:35.544Z,87.70
2019-03-25T08:13:40.436Z,90.10
2019-03-25T08:18:45.238Z,90.90
2019-03-25T08:23:50.076Z,91.80
2019-03-25T08:28:54.847Z,92.40
2019-03-25T08:34:00.045Z,92.40
2019-03-25T08:39:06.457Z,93.20
2019-03-25T08:44:11.292Z,93.80
2019-03-25T08:49:16.063Z,93.80
2019-03-25T08:54:20.897Z,93.90
2019-03-25T08:59:25.651Z,93.00
2019-03-25T09:04:30.486Z,93.30
2019-03-25T09:09:35.316Z,90.50
2019-03-25T09:14:40.154Z,89.10
2019-03-25T09:19:44.999Z,83.10
2019-03-25T09:24:49.761Z,84.90
2019-03-25T09:29:54.592Z,79.40
2019-03-25T09:34:59.720Z,81.10
2019-03-25T09:40:10.660Z,78.80
2019-03-25T09:45:15.497Z,76.30
2019-03-25T09:50:20.408Z,77.50
2019-03-25T09:55:25.260Z,75.50
2019-03-25T10:00:33.420Z,73.00
2019-03-25T10:05:38.367Z,73.30
2019-03-25T10:10:43.305Z,69.00
2019-03-25T10:15:48.136Z,67.00
2019-03-25T10:20:52.893Z,66.00
2019-03-25T10:25:57.734Z,61.10
2019-03-25T10:31:02.760Z,61.20
2019-03-25T10:36:07.878Z,55.80
2019-03-25T10:41:12.709Z,60.20
2019-03-25T10:46:17.545Z,56.10
2019-03-25T10:51:22.601Z,56.30
2019-03-25T10:56:27.496Z,57.70
2019-03-25T11:01:32.407Z,57.80
2019-03-25T11:06:37.255Z,60.00
2019-03-25T11:11:42.094Z,61.80
2019-03-25T11:16:46.917Z,63.00
2019-03-25T11:21:51.747Z,61.20
2019-03-25T11:26:56.573Z,60.70
2019-03-25T11:32:01.427Z,60.70
2019-03-25T11:37:06.418Z,63.30
2019-03-25T11:42:11.255Z,61.30
2019-03-25T11:47:16.114Z,65.30
2019-03-25T11:52:21.484Z,65.10
2019-03-25T11:57:26.330Z,64.60
2019-03-25T12:02:32.473Z,65.50
2019-03-25T12:07:37.303Z,64.60
2019-03-25T12:12:42.077Z,65.30
2019-03-25T12:17:46.964Z,66.70
2019-03-25T12:22:51.806Z,67.60
2019-03-25T12:27:56.639Z,68.80
2019-03-25T12:33:04.201Z,68.70
2019-03-25T12:38:08.193Z,69.20
2019-03-25T12:43:13.020Z,72.60
2019-03-25T12:48:17.849Z,83.30
2019-03-25T12:53:22.943Z,88.80
2019-03-25T12:58:27.734Z,90.10
2019-03-25T13:03:32.657Z,90.90
2019-03-25T13:08:37.534Z,91.50
2019-03-25T13:13:42.376Z,92.10
2019-03-25T13:18:47.132Z,92.30
2019-03-25T13:23:51.952Z,93.00
2019-03-25T13:29:01.846Z,93.30
2019-03-25T13:34:03.247Z,92.60
2019-03-25T13:39:08.265Z,93.40
2019-03-25T13:44:13.111Z,94.40
2019-03-25T13:49:17.885Z,94.60
2019-03-25T13:54:22.768Z,94.10
2019-03-25T13:59:29.078Z,94.30
2019-03-25T14:04:33.922Z,94.50
2019-03-25T14:09:38.752Z,94.30
2019-03-25T14:14:43.585Z,94.10
2019-03-25T14:19:48.431Z,93.40
2019-03-25T14:24:54.964Z,94.00
2019-03-25T14:29:59.803Z,94.80
2019-03-25T14:35:05.951Z,95.70
2019-03-25T14:40:10.792Z,93.90
2019-03-25T14:45:25.889Z,95.40
2019-03-25T14:50:22.698Z,94.00
2019-03-25T14:55:27.749Z,94.90
2019-03-25T15:00:32.590Z,94.60
2019-03-25T15:05:37.420Z,93.90
2019-03-25T15:10:52.985Z,94.40
2019-03-25T15:15:48.872Z,93.40
2019-03-25T15:20:53.705Z,93.90
2019-03-25T15:25:58.482Z,93.80
2019-03-25T15:31:03.321Z,93.90
2019-03-25T15:36:08.156Z,93.40
2019-03-25T15:41:14.655Z,94.00
2019-03-25T15:46:19.516Z,94.90
2019-03-25T15:51:24.273Z,94.10
2019-03-25T15:56:29.295Z,94.50
2019-03-25T16:01:34.192Z,94.10
2019-03-25T16:06:39.064Z,94.50
2019-03-25T16:11:43.900Z,94.80
2019-03-25T16:16:48.656Z,94.40
2019-03-25T16:21:53.500Z,94.20
2019-03-25T16:26:58.328Z,94.50
2019-03-25T16:32:03.188Z,95.10
2019-03-25T16:37:08.031Z,95.00
2019-03-25T16:42:14.382Z,94.10
2019-03-25T16:47:19.437Z,94.90
2019-03-25T16:52:25.307Z,95.30
2019-03-25T16:57:30.371Z,95.40
2019-03-25T17:02:35.219Z,95.70
2019-03-25T17:07:40.950Z,95.80
2019-03-25T17:12:46.397Z,95.70
2019-03-25T17:17:51.552Z,96.20
2019-03-25T17:22:58.824Z,96.10
2019-03-25T17:28:03.667Z,96.20
2019-03-25T17:33:08.484Z,96.60
2019-03-25T17:38:13.266Z,96.90
2019-03-25T17:43:19.196Z,97.40
2019-03-25T17:48:26.867Z,97.60
2019-03-25T17:53:31.711Z,98.00
2019-03-25T17:58:36.636Z,97.90
2019-03-25T18:03:41.480Z,98.00
2019-03-25T18:08:46.311Z,98.40
2019-03-25T18:13:51.158Z,97.80
2019-03-25T18:18:55.994Z,97.10
2019-03-25T18:24:00.853Z,96.80
2019-03-25T18:29:05.798Z,96.80
2019-03-25T18:34:10.644Z,97.20
2019-03-25T18:39:16.928Z,97.60
2019-03-25T18:44:22.623Z,97.70
2019-03-25T18:49:27.542Z,98.10
2019-03-25T18:54:32.418Z,97.80
2019-03-25T18:59:37.336Z,98.40
2019-03-25T19:04:42.307Z,97.80
2019-03-25T19:09:47.533Z,98.20
2019-03-25T19:14:52.402Z,98.60
2019-03-25T19:19:57.210Z,98.30
2019-03-25T19:25:02.069Z,98.60
2019-03-25T19:30:09.062Z,98.50
2019-03-25T19:35:13.904Z,98.40
2019-03-25T19:40:18.773Z,98.70
2019-03-25T19:45:23.953Z,98.80
2019-03-25T19:50:28.816Z,98.50
2019-03-25T19:55:33.610Z,98.80
2019-03-25T20:00:40.003Z,99.00
2019-03-25T20:05:44.923Z,99.10
2019-03-25T20:10:49.801Z,99.00
2019-03-25T20:15:54.607Z,98.80
2019-03-25T20:20:59.437Z,98.70
2019-03-25T20:26:04.376Z,98.70
2019-03-25T20:31:09.224Z,98.40
2019-03-25T20:36:14.084Z,98.60
2019-03-25T20:41:18.897Z,98.50
2019-03-25T20:46:24.079Z,98.60
2019-03-25T20:51:28.911Z,98.50
2019-03-25T20:56:33.814Z,98.30
2019-03-25T21:01:38.813Z,98.20
2019-03-25T21:06:43.617Z,98.00
2019-03-25T21:11:48.554Z,98.40
2019-03-25T21:16:53.438Z,98.80
2019-03-25T21:21:58.200Z,99.20
2019-03-25T21:27:02.988Z,99.10
2019-03-25T21:32:07.930Z,99.10
2019-03-25T21:37:12.843Z,99.00
2019-03-25T21:42:17.721Z,99.40
2019-03-25T21:47:22.646Z,99.10
2019-03-25T21:52:27.461Z,99.30
2019-03-25T21:57:32.306Z,99.10
2019-03-25T22:02:37.283Z,99.30
2019-03-25T22:07:42.068Z,99.20
2019-03-25T22:12:46.898Z,98.80
2019-03-25T22:17:51.735Z,98.90
2019-03-25T22:22:56.564Z,98.60
2019-03-25T22:28:01.330Z,99.00
2019-03-25T22:33:06.182Z,99.00
2019-03-25T22:38:11.020Z,98.90
2019-03-25T22:43:15.783Z,98.70
2019-03-25T22:48:20.646Z,99.00
2019-03-25T22:53:25.391Z,98.80
2019-03-25T22:58:30.253Z,99.00
2019-03-25T23:03:39.436Z,99.20
2019-03-25T23:08:41.650Z,99.00
2019-03-25T23:13:46.487Z,99.30
2019-03-25T23:18:51.270Z,99.20
2019-03-25T23:23:56.105Z,99.30
2019-03-25T23:29:00.934Z,99.40
2019-03-25T23:34:05.778Z,99.30
2019-03-25T23:39:10.601Z,98.80
2019-03-25T23:44:15.450Z,98.90
2019-03-25T23:49:20.291Z,98.70
2019-03-25T23:54:25.135Z,98.90
2019-03-25T23:59:29.885Z,99.40
